PWSweather.com
Personal Weather Stations
Station Observations
RIORANCHO
Corrales Heights, Rio Rancho, NM 87124

Corrales HeightsRio Rancho, NM 87124

Lat: 35.241928, Lon: -106.647095

Elevation: 5297

Station Type: Davis Vantage Pro 2 Plus

http://www.weatherriorancho.com

High Low Average
Temperature 92.6°F33.7°C 64.1°F17.8°C 76.3°F24.6°C
Dew Point 49.9°F9.9°C 41.6°F5.3°C 45.8°F7.7°C
Winds 9.2 mph 14.8 kmh Calm Calm 2.0 mph SSW3.2 kmh SSW
Wind Gusts 19.6 mph31.5 kmh -- 4.0 mph6.4 kmh
Humidity 52% 18% 36%
Pressure 30.24 in1024.0 mb 30.07 in1018.3 mb -
Precipitation 0.01 in0.3 mm - -
Hour Temp Dew Point Humidity Winds Wind Gusts Pressure Precip Precip Rate Daily Precip Total
12:00 AM 73.9°F23.3°C 41.3°F5.2°C 31% Calm Calm 1.2 mph1.9 kmh 30.23 in1023.7 mb - 0.00 in0.0 mm 0.00 in0.0 mm
12:10 AM 74.1°F23.4°C 41.5°F5.3°C 31% 5.8 mph NNW9.3 kmh NNW 16.1 mph25.9 kmh 30.23 in1023.7 mb - 0.00 in0.0 mm 0.00 in0.0 mm
12:20 AM 74.8°F23.8°C 42.2°F5.7°C 31% 4.6 mph NNW7.4 kmh NNW 4.6 mph7.4 kmh 30.23 in1023.7 mb - 0.00 in0.0 mm 0.00 in0.0 mm
12:30 AM 74.9°F23.8°C 43.0°F6.1°C 32% 1.2 mph N1.9 kmh N 5.8 mph9.3 kmh 30.23 in1023.7 mb - 0.00 in0.0 mm 0.00 in0.0 mm
12:40 AM 74.6°F23.7°C 42.8°F6.0°C 32% 4.6 mph N7.4 kmh N 6.9 mph11.1 kmh 30.23 in1023.7 mb - 0.00 in0.0 mm 0.00 in0.0 mm
12:50 AM 74.3°F23.5°C 42.5°F5.8°C 32% 5.8 mph N9.3 kmh N 11.5 mph18.5 kmh 30.23 in1023.7 mb - 0.00 in0.0 mm 0.00 in0.0 mm
01:00 AM 75.0°F23.9°C 43.9°F6.6°C 33% 4.6 mph N7.4 kmh N 15.0 mph24.1 kmh 30.23 in1023.7 mb - 0.00 in0.0 mm 0.00 in0.0 mm
01:10 AM 74.1°F23.4°C 43.9°F6.6°C 34% 3.5 mph N5.6 kmh N 13.8 mph22.2 kmh 30.23 in1023.7 mb - 0.00 in0.0 mm 0.00 in0.0 mm
01:20 AM 73.8°F23.2°C 44.4°F6.9°C 35% 2.3 mph N3.7 kmh N 3.5 mph5.6 kmh 30.23 in1023.7 mb - 0.00 in0.0 mm 0.00 in0.0 mm
01:30 AM 73.5°F23.1°C 44.9°F7.2°C 36% 4.6 mph N7.4 kmh N 9.2 mph14.8 kmh 30.23 in1023.7 mb - 0.00 in0.0 mm 0.00 in0.0 mm
01:40 AM 73.2°F22.9°C 44.6°F7.0°C 36% 1.2 mph N1.9 kmh N 6.9 mph11.1 kmh 30.23 in1023.7 mb - 0.00 in0.0 mm 0.00 in0.0 mm
01:50 AM 72.8°F22.7°C 45.0°F7.2°C 37% 1.2 mph N1.9 kmh N 3.5 mph5.6 kmh 30.23 in1023.7 mb - 0.00 in0.0 mm 0.00 in0.0 mm
02:00 AM 72.3°F22.4°C 45.3°F7.4°C 38% 2.3 mph N3.7 kmh N 8.1 mph13.0 kmh 30.23 in1023.7 mb - 0.00 in0.0 mm 0.00 in0.0 mm
02:10 AM 72.0°F22.2°C 45.7°F7.6°C 39% 5.8 mph NNW9.3 kmh NNW 9.2 mph14.8 kmh 30.23 in1023.7 mb - 0.00 in0.0 mm 0.00 in0.0 mm
02:20 AM 71.7°F22.1°C 45.4°F7.4°C 39% 3.5 mph N5.6 kmh N 11.5 mph18.5 kmh 30.23 in1023.7 mb - 0.00 in0.0 mm 0.00 in0.0 mm
02:30 AM 71.4°F21.9°C 45.8°F7.7°C 40% 1.2 mph NNW1.9 kmh NNW 4.6 mph7.4 kmh 30.23 in1023.7 mb - 0.00 in0.0 mm 0.00 in0.0 mm
02:40 AM 71.0°F21.7°C 46.1°F7.8°C 41% Calm Calm -- 30.23 in1023.7 mb - 0.00 in0.0 mm 0.00 in0.0 mm
02:50 AM 70.7°F21.5°C 45.9°F7.7°C 41% Calm Calm 2.3 mph3.7 kmh 30.23 in1023.7 mb - 0.00 in0.0 mm 0.00 in0.0 mm
03:00 AM 70.3°F21.3°C 46.1°F7.8°C 42% Calm Calm -- 30.22 in1023.4 mb - 0.00 in0.0 mm 0.00 in0.0 mm
03:10 AM 70.1°F21.2°C 45.9°F7.7°C 42% Calm Calm -- 30.22 in1023.4 mb - 0.00 in0.0 mm 0.00 in0.0 mm
03:20 AM 69.8°F21.0°C 45.0°F7.2°C 41% Calm Calm -- 30.22 in1023.4 mb - 0.00 in0.0 mm 0.00 in0.0 mm
03:30 AM 69.5°F20.8°C 45.4°F7.4°C 42% Calm Calm -- 30.22 in1023.4 mb - 0.00 in0.0 mm 0.00 in0.0 mm
03:40 AM 69.0°F20.6°C 45.6°F7.6°C 43% Calm Calm -- 30.22 in1023.4 mb - 0.00 in0.0 mm 0.00 in0.0 mm
03:50 AM 68.3°F20.2°C 45.5°F7.5°C 44% Calm Calm -- 30.22 in1023.4 mb - 0.00 in0.0 mm 0.00 in0.0 mm
04:00 AM 67.8°F19.9°C 45.6°F7.6°C 45% Calm Calm -- 30.22 in1023.4 mb - 0.00 in0.0 mm 0.00 in0.0 mm
04:10 AM 67.5°F19.7°C 46.0°F7.8°C 46% Calm Calm -- 30.22 in1023.4 mb - 0.00 in0.0 mm 0.00 in0.0 mm
04:20 AM 67.4°F19.7°C 45.9°F7.7°C 46% Calm Calm -- 30.21 in1023.0 mb - 0.00 in0.0 mm 0.00 in0.0 mm
04:30 AM 66.9°F19.4°C 46.0°F7.8°C 47% Calm Calm -- 30.21 in1023.0 mb - 0.00 in0.0 mm 0.00 in0.0 mm
04:40 AM 66.5°F19.2°C 46.2°F7.9°C 48% Calm Calm -- 30.21 in1023.0 mb - 0.00 in0.0 mm 0.00 in0.0 mm
04:50 AM 66.2°F19.0°C 46.5°F8.1°C 49% Calm Calm -- 30.21 in1023.0 mb - 0.00 in0.0 mm 0.00 in0.0 mm
05:00 AM 65.9°F18.8°C 46.2°F7.9°C 49% Calm Calm -- 30.21 in1023.0 mb - 0.00 in0.0 mm 0.00 in0.0 mm
05:10 AM 65.4°F18.6°C 46.2°F7.9°C 50% Calm Calm -- 30.21 in1023.0 mb - 0.00 in0.0 mm 0.00 in0.0 mm
05:20 AM 65.0°F18.3°C 46.4°F8.0°C 51% 1.2 mph NW1.9 kmh NW 5.8 mph9.3 kmh 30.21 in1023.0 mb - 0.00 in0.0 mm 0.00 in0.0 mm
05:30 AM 65.1°F18.4°C 45.5°F7.5°C 49% 2.3 mph NW3.7 kmh NW 2.3 mph3.7 kmh 30.21 in1023.0 mb - 0.00 in0.0 mm 0.00 in0.0 mm
05:40 AM 65.1°F18.4°C 44.9°F7.2°C 48% Calm Calm 3.5 mph5.6 kmh 30.21 in1023.0 mb - 0.00 in0.0 mm 0.00 in0.0 mm
05:50 AM 65.0°F18.3°C 44.8°F7.1°C 48% 1.2 mph NW1.9 kmh NW 4.6 mph7.4 kmh 30.21 in1023.0 mb - 0.00 in0.0 mm 0.00 in0.0 mm
06:00 AM 65.0°F18.3°C 45.4°F7.4°C 49% 2.3 mph NW3.7 kmh NW 4.6 mph7.4 kmh 30.21 in1023.0 mb - 0.00 in0.0 mm 0.00 in0.0 mm
06:10 AM 64.6°F18.1°C 45.5°F7.5°C 50% 2.3 mph NW3.7 kmh NW 3.5 mph5.6 kmh 30.22 in1023.4 mb - 0.00 in0.0 mm 0.00 in0.0 mm
06:20 AM 64.3°F17.9°C 45.3°F7.4°C 50% Calm Calm -- 30.22 in1023.4 mb - 0.00 in0.0 mm 0.00 in0.0 mm
06:30 AM 64.1°F17.8°C 45.1°F7.3°C 50% 2.3 mph NNW3.7 kmh NNW 4.6 mph7.4 kmh 30.22 in1023.4 mb - 0.00 in0.0 mm 0.00 in0.0 mm
06:40 AM 64.3°F17.9°C 45.3°F7.4°C 50% 1.2 mph NW1.9 kmh NW 4.6 mph7.4 kmh 30.22 in1023.4 mb - 0.00 in0.0 mm 0.00 in0.0 mm
06:50 AM 64.3°F17.9°C 45.3°F7.4°C 50% 2.3 mph NW3.7 kmh NW 3.5 mph5.6 kmh 30.22 in1023.4 mb - 0.00 in0.0 mm 0.00 in0.0 mm
07:00 AM 64.4°F18.0°C 45.3°F7.4°C 50% Calm Calm -- 30.22 in1023.4 mb - 0.00 in0.0 mm 0.00 in0.0 mm
07:10 AM 64.4°F18.0°C 45.9°F7.7°C 51% Calm Calm -- 30.22 in1023.4 mb - 0.00 in0.0 mm 0.00 in0.0 mm
07:20 AM 64.8°F18.2°C 46.2°F7.9°C 51% Calm Calm 2.3 mph3.7 kmh 30.22 in1023.4 mb - 0.00 in0.0 mm 0.00 in0.0 mm
07:30 AM 65.0°F18.3°C 46.4°F8.0°C 51% Calm Calm -- 30.23 in1023.7 mb - 0.00 in0.0 mm 0.00 in0.0 mm
07:40 AM 65.3°F18.5°C 46.1°F7.8°C 50% 1.2 mph NNW1.9 kmh NNW 1.2 mph1.9 kmh 30.23 in1023.7 mb - 0.00 in0.0 mm 0.00 in0.0 mm
07:50 AM 65.8°F18.8°C 46.1°F7.8°C 49% 1.2 mph NW1.9 kmh NW 3.5 mph5.6 kmh 30.23 in1023.7 mb - 0.00 in0.0 mm 0.00 in0.0 mm
08:00 AM 66.6°F19.2°C 45.7°F7.6°C 47% 1.2 mph N1.9 kmh N 4.6 mph7.4 kmh 30.23 in1023.7 mb - 0.00 in0.0 mm 0.00 in0.0 mm
08:10 AM 67.8°F19.9°C 46.3°F7.9°C 46% 2.3 mph N3.7 kmh N 4.6 mph7.4 kmh 30.23 in1023.7 mb - 0.00 in0.0 mm 0.00 in0.0 mm
08:20 AM 69.0°F20.6°C 46.8°F8.2°C 45% 1.2 mph N1.9 kmh N 5.8 mph9.3 kmh 30.23 in1023.7 mb - 0.00 in0.0 mm 0.00 in0.0 mm
08:30 AM 69.5°F20.8°C 47.2°F8.4°C 45% 2.3 mph NNW3.7 kmh NNW 6.9 mph11.1 kmh 30.23 in1023.7 mb - 0.00 in0.0 mm 0.00 in0.0 mm
08:40 AM 69.6°F20.9°C 46.7°F8.2°C 44% 2.3 mph N3.7 kmh N 4.6 mph7.4 kmh 30.23 in1023.7 mb - 0.00 in0.0 mm 0.00 in0.0 mm
08:50 AM 69.9°F21.1°C 46.9°F8.3°C 44% 3.5 mph N5.6 kmh N 5.8 mph9.3 kmh 30.23 in1023.7 mb - 0.00 in0.0 mm 0.00 in0.0 mm
09:00 AM 70.4°F21.3°C 47.4°F8.6°C 44% 4.6 mph N7.4 kmh N 8.1 mph13.0 kmh 30.23 in1023.7 mb - 0.00 in0.0 mm 0.00 in0.0 mm
09:10 AM 70.3°F21.3°C 47.4°F8.6°C 44% 3.5 mph N5.6 kmh N 5.8 mph9.3 kmh 30.24 in1024.0 mb - 0.00 in0.0 mm 0.00 in0.0 mm
09:20 AM 70.9°F21.6°C 47.9°F8.8°C 44% 1.2 mph N1.9 kmh N 4.6 mph7.4 kmh 30.24 in1024.0 mb - 0.00 in0.0 mm 0.00 in0.0 mm
09:30 AM 71.8°F22.1°C 48.1°F8.9°C 43% 1.2 mph NNE1.9 kmh NNE 1.2 mph1.9 kmh 30.24 in1024.0 mb - 0.00 in0.0 mm 0.00 in0.0 mm
09:40 AM 72.8°F22.7°C 48.3°F9.1°C 42% 2.3 mph N3.7 kmh N 5.8 mph9.3 kmh 30.24 in1024.0 mb - 0.00 in0.0 mm 0.00 in0.0 mm
09:50 AM 73.6°F23.1°C 48.4°F9.1°C 41% Calm Calm -- 30.23 in1023.7 mb - 0.00 in0.0 mm 0.00 in0.0 mm
10:00 AM 74.6°F23.7°C 48.0°F8.9°C 39% 1.2 mph NNE1.9 kmh NNE 3.5 mph5.6 kmh 30.23 in1023.7 mb - 0.00 in0.0 mm 0.00 in0.0 mm
10:10 AM 75.7°F24.3°C 48.3°F9.1°C 38% Calm Calm -- 30.23 in1023.7 mb - 0.00 in0.0 mm 0.00 in0.0 mm
10:20 AM 76.4°F24.7°C 48.2°F9.0°C 37% 2.3 mph NE3.7 kmh NE 3.5 mph5.6 kmh 30.23 in1023.7 mb - 0.00 in0.0 mm 0.00 in0.0 mm
10:30 AM 76.6°F24.8°C 46.9°F8.3°C 35% Calm Calm -- 30.23 in1023.7 mb - 0.00 in0.0 mm 0.00 in0.0 mm
10:40 AM 77.5°F25.3°C 46.1°F7.8°C 33% Calm Calm -- 30.23 in1023.7 mb - 0.00 in0.0 mm 0.00 in0.0 mm
10:50 AM 78.2°F25.7°C 45.1°F7.3°C 31% Calm Calm 3.5 mph5.6 kmh 30.23 in1023.7 mb - 0.00 in0.0 mm 0.00 in0.0 mm
11:00 AM 79.3°F26.3°C 45.2°F7.3°C 30% Calm Calm -- 30.23 in1023.7 mb - 0.00 in0.0 mm 0.00 in0.0 mm
11:10 AM 80.9°F27.2°C 42.8°F6.0°C 26% 1.2 mph S1.9 kmh S 3.5 mph5.6 kmh 30.22 in1023.4 mb - 0.00 in0.0 mm 0.00 in0.0 mm
11:20 AM 80.7°F27.1°C 43.6°F6.4°C 27% 1.2 mph SE1.9 kmh SE 4.6 mph7.4 kmh 30.22 in1023.4 mb - 0.00 in0.0 mm 0.00 in0.0 mm
11:30 AM 80.8°F27.1°C 42.7°F5.9°C 26% 3.5 mph SE5.6 kmh SE 3.5 mph5.6 kmh 30.22 in1023.4 mb - 0.00 in0.0 mm 0.00 in0.0 mm
11:40 AM 80.9°F27.2°C 42.8°F6.0°C 26% 4.6 mph SE7.4 kmh SE 4.6 mph7.4 kmh 30.21 in1023.0 mb - 0.00 in0.0 mm 0.00 in0.0 mm
11:50 AM 82.0°F27.8°C 43.8°F6.6°C 26% 2.3 mph SSW3.7 kmh SSW 5.8 mph9.3 kmh 30.21 in1023.0 mb - 0.00 in0.0 mm 0.00 in0.0 mm
12:00 PM 82.2°F27.9°C 42.9°F6.1°C 25% 1.2 mph E1.9 kmh E -- 30.21 in1023.0 mb - 0.00 in0.0 mm 0.00 in0.0 mm
12:10 PM 81.0°F27.2°C 41.9°F5.5°C 25% Calm Calm 4.6 mph7.4 kmh 30.20 in1022.7 mb - 0.00 in0.0 mm 0.00 in0.0 mm
12:20 PM 82.5°F28.1°C 42.1°F5.6°C 24% 5.8 mph SE9.3 kmh SE 9.2 mph14.8 kmh 30.20 in1022.7 mb - 0.00 in0.0 mm 0.00 in0.0 mm
12:30 PM 83.1°F28.4°C 42.6°F5.9°C 24% 4.6 mph E7.4 kmh E 8.1 mph13.0 kmh 30.19 in1022.4 mb - 0.00 in0.0 mm 0.00 in0.0 mm
12:40 PM 82.7°F28.2°C 42.2°F5.7°C 24% Calm Calm -- 30.18 in1022.0 mb - 0.00 in0.0 mm 0.00 in0.0 mm
12:50 PM 84.8°F29.3°C 42.8°F6.0°C 23% 1.2 mph S1.9 kmh S 5.8 mph9.3 kmh 30.17 in1021.7 mb - 0.00 in0.0 mm 0.00 in0.0 mm
01:00 PM 84.8°F29.3°C 41.7°F5.4°C 22% 4.6 mph SE7.4 kmh SE 4.6 mph7.4 kmh 30.17 in1021.7 mb - 0.00 in0.0 mm 0.00 in0.0 mm
01:10 PM 86.0°F30.0°C 42.8°F6.0°C 22% 2.3 mph ESE3.7 kmh ESE 4.6 mph7.4 kmh 30.16 in1021.3 mb - 0.00 in0.0 mm 0.00 in0.0 mm
01:20 PM 87.2°F30.7°C 42.5°F5.8°C 21% 3.5 mph SE5.6 kmh SE 6.9 mph11.1 kmh 30.16 in1021.3 mb - 0.00 in0.0 mm 0.00 in0.0 mm
01:30 PM 87.3°F30.7°C 43.8°F6.6°C 22% 2.3 mph ESE3.7 kmh ESE 4.6 mph7.4 kmh 30.15 in1021.0 mb - 0.00 in0.0 mm 0.00 in0.0 mm
01:40 PM 88.5°F31.4°C 43.6°F6.4°C 21% 3.5 mph E5.6 kmh E 4.6 mph7.4 kmh 30.15 in1021.0 mb - 0.00 in0.0 mm 0.00 in0.0 mm
01:50 PM 88.1°F31.2°C 43.2°F6.2°C 21% 3.5 mph ESE5.6 kmh ESE 6.9 mph11.1 kmh 30.14 in1020.7 mb - 0.00 in0.0 mm 0.00 in0.0 mm
02:00 PM 89.6°F32.0°C 43.2°F6.2°C 20% 3.5 mph E5.6 kmh E 10.4 mph16.7 kmh 30.13 in1020.3 mb - 0.00 in0.0 mm 0.00 in0.0 mm
02:10 PM 89.2°F31.8°C 42.9°F6.1°C 20% 3.5 mph ENE5.6 kmh ENE 8.1 mph13.0 kmh 30.13 in1020.3 mb - 0.00 in0.0 mm 0.00 in0.0 mm
02:20 PM 91.2°F32.9°C 43.1°F6.2°C 19% 3.5 mph E5.6 kmh E 6.9 mph11.1 kmh 30.12 in1020.0 mb - 0.00 in0.0 mm 0.00 in0.0 mm
02:30 PM 91.3°F32.9°C 41.9°F5.5°C 18% 2.3 mph SE3.7 kmh SE 8.1 mph13.0 kmh 30.11 in1019.6 mb - 0.00 in0.0 mm 0.00 in0.0 mm
02:40 PM 91.9°F33.3°C 42.3°F5.7°C 18% 6.9 mph SE11.1 kmh SE 11.5 mph18.5 kmh 30.11 in1019.6 mb - 0.00 in0.0 mm 0.00 in0.0 mm
02:50 PM 91.5°F33.1°C 42.0°F5.6°C 18% 4.6 mph ESE7.4 kmh ESE 9.2 mph14.8 kmh 30.10 in1019.3 mb - 0.00 in0.0 mm 0.00 in0.0 mm
03:00 PM 91.2°F32.9°C 43.1°F6.2°C 19% 3.5 mph E5.6 kmh E 6.9 mph11.1 kmh 30.10 in1019.3 mb - 0.00 in0.0 mm 0.00 in0.0 mm
03:10 PM 91.0°F32.8°C 41.6°F5.3°C 18% 5.8 mph SE9.3 kmh SE 9.2 mph14.8 kmh 30.09 in1019.0 mb - 0.00 in0.0 mm 0.00 in0.0 mm
03:20 PM 91.9°F33.3°C 42.3°F5.7°C 18% 2.3 mph SE3.7 kmh SE 4.6 mph7.4 kmh 30.09 in1019.0 mb - 0.00 in0.0 mm 0.00 in0.0 mm
03:30 PM 91.1°F32.8°C 43.1°F6.2°C 19% 3.5 mph SE5.6 kmh SE 3.5 mph5.6 kmh 30.08 in1018.6 mb - 0.00 in0.0 mm 0.00 in0.0 mm
03:40 PM 92.6°F33.7°C 42.9°F6.1°C 18% 4.6 mph SE7.4 kmh SE 5.8 mph9.3 kmh 30.08 in1018.6 mb - 0.00 in0.0 mm 0.00 in0.0 mm
03:50 PM 92.0°F33.3°C 42.4°F5.8°C 18% 3.5 mph ESE5.6 kmh ESE 8.1 mph13.0 kmh 30.08 in1018.6 mb - 0.00 in0.0 mm 0.00 in0.0 mm
04:00 PM 92.1°F33.4°C 42.5°F5.8°C 18% 1.2 mph SSE1.9 kmh SSE 6.9 mph11.1 kmh 30.07 in1018.3 mb - 0.00 in0.0 mm 0.00 in0.0 mm
04:10 PM 92.4°F33.6°C 42.8°F6.0°C 18% 2.3 mph SSE3.7 kmh SSE 8.1 mph13.0 kmh 30.07 in1018.3 mb - 0.00 in0.0 mm 0.00 in0.0 mm
04:20 PM 90.7°F32.6°C 42.8°F6.0°C 19% 4.6 mph SE7.4 kmh SE 6.9 mph11.1 kmh 30.07 in1018.3 mb - 0.00 in0.0 mm 0.00 in0.0 mm
04:30 PM 91.3°F32.9°C 43.2°F6.2°C 19% 8.1 mph S13.0 kmh S 16.1 mph25.9 kmh 30.07 in1018.3 mb - 0.00 in0.0 mm 0.00 in0.0 mm
04:40 PM 89.7°F32.1°C 44.6°F7.0°C 21% 9.2 mph SSW14.8 kmh SSW 19.6 mph31.5 kmh 30.07 in1018.3 mb - 0.00 in0.0 mm 0.00 in0.0 mm
04:50 PM 88.3°F31.3°C 43.4°F6.3°C 21% 6.9 mph SSW11.1 kmh SSW 11.5 mph18.5 kmh 30.09 in1019.0 mb - 0.00 in0.0 mm 0.00 in0.0 mm
05:00 PM 87.2°F30.7°C 43.7°F6.5°C 22% 6.9 mph SSW11.1 kmh SSW 9.2 mph14.8 kmh 30.08 in1018.6 mb - 0.00 in0.0 mm 0.00 in0.0 mm
05:10 PM 87.2°F30.7°C 44.9°F7.2°C 23% 8.1 mph SSW13.0 kmh SSW 11.5 mph18.5 kmh 30.08 in1018.6 mb - 0.00 in0.0 mm 0.00 in0.0 mm
05:20 PM 86.7°F30.4°C 47.7°F8.7°C 26% 4.6 mph SW7.4 kmh SW 8.1 mph13.0 kmh 30.09 in1019.0 mb - 0.00 in0.0 mm 0.00 in0.0 mm
05:30 PM 85.9°F29.9°C 49.9°F9.9°C 29% Calm Calm -- 30.09 in1019.0 mb - 0.00 in0.0 mm 0.00 in0.0 mm
05:40 PM 84.4°F29.1°C 46.8°F8.2°C 27% 1.2 mph SE1.9 kmh SE 3.5 mph5.6 kmh 30.08 in1018.6 mb - 0.00 in0.0 mm 0.00 in0.0 mm
05:50 PM 83.3°F28.5°C 47.7°F8.7°C 29% 5.8 mph ESE9.3 kmh ESE 8.1 mph13.0 kmh 30.07 in1018.3 mb - 0.00 in0.0 mm 0.00 in0.0 mm
06:00 PM 82.4°F28.0°C 47.8°F8.8°C 30% Calm Calm -- 30.08 in1018.6 mb - 0.00 in0.0 mm 0.00 in0.0 mm
06:10 PM 82.6°F28.1°C 47.1°F8.4°C 29% Calm Calm 3.5 mph5.6 kmh 30.08 in1018.6 mb - 0.00 in0.0 mm 0.00 in0.0 mm
06:20 PM 82.0°F27.8°C 49.2°F9.6°C 32% 2.3 mph E3.7 kmh E 2.3 mph3.7 kmh 30.08 in1018.6 mb - 0.00 in0.0 mm 0.00 in0.0 mm
06:30 PM 81.3°F27.4°C 47.8°F8.8°C 31% 3.5 mph ENE5.6 kmh ENE 6.9 mph11.1 kmh 30.09 in1019.0 mb - 0.00 in0.0 mm 0.00 in0.0 mm
06:40 PM 81.0°F27.2°C 47.5°F8.6°C 31% 1.2 mph N1.9 kmh N 4.6 mph7.4 kmh 30.09 in1019.0 mb - 0.00 in0.0 mm 0.00 in0.0 mm
06:50 PM 80.5°F26.9°C 48.7°F9.3°C 33% 8.1 mph NNW13.0 kmh NNW 13.8 mph22.2 kmh 30.09 in1019.0 mb - 0.00 in0.0 mm 0.00 in0.0 mm
07:00 PM 80.4°F26.9°C 47.0°F8.3°C 31% 2.3 mph NE3.7 kmh NE 6.9 mph11.1 kmh 30.08 in1018.6 mb - 0.00 in0.0 mm 0.00 in0.0 mm
07:10 PM 80.7°F27.1°C 46.4°F8.0°C 30% Calm Calm -- 30.08 in1018.6 mb - 0.00 in0.0 mm 0.00 in0.0 mm
07:20 PM 80.5°F26.9°C 47.1°F8.4°C 31% Calm Calm 3.5 mph5.6 kmh 30.08 in1018.6 mb - 0.00 in0.0 mm 0.00 in0.0 mm
07:30 PM 80.0°F26.7°C 46.6°F8.1°C 31% Calm Calm 3.5 mph5.6 kmh 30.08 in1018.6 mb - 0.00 in0.0 mm 0.00 in0.0 mm
07:40 PM 79.6°F26.4°C 47.1°F8.4°C 32% Calm Calm -- 30.07 in1018.3 mb - 0.00 in0.0 mm 0.00 in0.0 mm
07:50 PM 79.3°F26.3°C 46.0°F7.8°C 31% Calm Calm -- 30.07 in1018.3 mb - 0.00 in0.0 mm 0.00 in0.0 mm
08:00 PM 79.2°F26.2°C 46.8°F8.2°C 32% Calm Calm -- 30.07 in1018.3 mb - 0.00 in0.0 mm 0.00 in0.0 mm
08:10 PM 79.0°F26.1°C 46.6°F8.1°C 32% 2.3 mph SW3.7 kmh SW 3.5 mph5.6 kmh 30.08 in1018.6 mb - 0.00 in0.0 mm 0.00 in0.0 mm
08:20 PM 78.8°F26.0°C 47.2°F8.4°C 33% 8.1 mph SW13.0 kmh SW 11.5 mph18.5 kmh 30.09 in1019.0 mb - 0.00 in0.0 mm 0.00 in0.0 mm
08:30 PM 78.5°F25.8°C 47.0°F8.3°C 33% 3.5 mph SW5.6 kmh SW 11.5 mph18.5 kmh 30.09 in1019.0 mb - 0.00 in0.0 mm 0.00 in0.0 mm
08:40 PM 78.5°F25.8°C 45.3°F7.4°C 31% 3.5 mph SW5.6 kmh SW 8.1 mph13.0 kmh 30.09 in1019.0 mb - 0.00 in0.0 mm 0.00 in0.0 mm
08:50 PM 79.1°F26.2°C 44.1°F6.7°C 29% Calm Calm -- 30.09 in1019.0 mb - 0.00 in0.0 mm 0.00 in0.0 mm
09:00 PM 78.9°F26.1°C 44.9°F7.2°C 30% Calm Calm -- 30.09 in1019.0 mb - 0.00 in0.0 mm 0.00 in0.0 mm
09:10 PM 78.5°F25.8°C 46.2°F7.9°C 32% Calm Calm -- 30.09 in1019.0 mb - 0.00 in0.0 mm 0.00 in0.0 mm
09:20 PM 77.4°F25.2°C 46.0°F7.8°C 33% Calm Calm -- 30.09 in1019.0 mb - 0.00 in0.0 mm 0.00 in0.0 mm
09:30 PM 76.4°F24.7°C 47.5°F8.6°C 36% Calm Calm -- 30.09 in1019.0 mb - 0.00 in0.0 mm 0.00 in0.0 mm
09:40 PM 75.2°F24.0°C 49.2°F9.6°C 40% Calm Calm 1.2 mph1.9 kmh 30.10 in1019.3 mb - 0.00 in0.0 mm 0.00 in0.0 mm
09:50 PM 74.5°F23.6°C 48.6°F9.2°C 40% 1.2 mph NNW1.9 kmh NNW 4.6 mph7.4 kmh 30.10 in1019.3 mb - 0.00 in0.0 mm 0.00 in0.0 mm
10:00 PM 74.0°F23.3°C 48.8°F9.3°C 41% Calm Calm 1.2 mph1.9 kmh 30.10 in1019.3 mb - 0.00 in0.0 mm 0.00 in0.0 mm
10:10 PM 73.7°F23.2°C 48.5°F9.2°C 41% Calm Calm -- 30.10 in1019.3 mb - 0.01 in0.3 mm 0.01 in0.3 mm
10:20 PM 73.1°F22.8°C 48.7°F9.3°C 42% Calm Calm -- 30.10 in1019.3 mb - 0.00 in0.0 mm 0.01 in0.3 mm
10:30 PM 72.4°F22.4°C 49.3°F9.6°C 44% Calm Calm 1.2 mph1.9 kmh 30.10 in1019.3 mb - 0.00 in0.0 mm 0.01 in0.3 mm
10:40 PM 71.5°F21.9°C 49.7°F9.8°C 46% Calm Calm 1.2 mph1.9 kmh 30.10 in1019.3 mb - 0.00 in0.0 mm 0.01 in0.3 mm
10:50 PM 70.8°F21.6°C 49.6°F9.8°C 47% 1.2 mph W1.9 kmh W 3.5 mph5.6 kmh 30.11 in1019.6 mb - 0.00 in0.0 mm 0.01 in0.3 mm
11:00 PM 70.2°F21.2°C 49.6°F9.8°C 48% 1.2 mph NW1.9 kmh NW 3.5 mph5.6 kmh 30.11 in1019.6 mb - 0.00 in0.0 mm 0.01 in0.3 mm
11:10 PM 69.9°F21.1°C 49.9°F9.9°C 49% Calm Calm 2.3 mph3.7 kmh 30.11 in1019.6 mb - 0.00 in0.0 mm 0.01 in0.3 mm
11:20 PM 69.6°F20.9°C 49.6°F9.8°C 49% Calm Calm 3.5 mph5.6 kmh 30.11 in1019.6 mb - 0.00 in0.0 mm 0.01 in0.3 mm
11:30 PM 69.4°F20.8°C 49.4°F9.7°C 49% Calm Calm 2.3 mph3.7 kmh 30.10 in1019.3 mb - 0.00 in0.0 mm 0.01 in0.3 mm
11:40 PM 69.2°F20.7°C 49.7°F9.8°C 50% Calm Calm 3.5 mph5.6 kmh 30.10 in1019.3 mb - 0.00 in0.0 mm 0.01 in0.3 mm
11:50 PM 68.9°F20.5°C 49.5°F9.7°C 50% Calm Calm -- 30.10 in1019.3 mb - 0.00 in0.0 mm 0.01 in0.3 mm